You are not logged in, Click here to log in
ICAO: CYVR Country: 加拿大英屬哥倫比亞省列治文海島
Latitude: 49.1967 Longitude: -123.182
Total Arrivals: 6 Total Departures: 10
Latest Arrival: AA1264W (KLAX-CYVR)CHUANYI. Lin Latest Departure: AC538 (CYVR-PANC)CHUANYI. Lin
Scenery:
METAR : CYVR 210700Z 08005KT 20SM FEW170 17/13 A2990 RMK AC1 SLP127 DENSITY ALT 400FT

溫哥華國際機場YVR